Hovedside
METAR-TAF:

METAR-TAF

Lufthavner :

Tartu, Estland

Tartu lufthavn

breddegrad: 58-18N, lengdegrad: 026-44E, høyde over havet: 59 m

Gjeldene værobservasjon

Denne rapporten ble laget for 58 minutter siden, klokken 12:50 UTC
Vind 8 kt fra Nord-nordvest
Temperatur -9°C
Luftfuktighet 62%
Trykk 1031 hPa
Sikt 10 km eller mer
Få skyer i en høyde av 600 ft
Brutte skyer i en høyde av 1500 ft
lett snø

METAR: EETU 251250Z 33008KT 9999 -SN FEW006 BKN015 M09/M15 Q1031

Tid: 15:48 (13:48 UTC)

Varsel

Denne rapporten ble laget for 30 timer og 48 minutter siden, klokken 07:00 UTC
Varsel gyldig fra 24. klokken 08 UTC til 24. klokken 14 UTC
Vind 5 kt fra Nord-nordøst
Sikt 10 km eller mer
Spredte skyer i en høyde av 2000 ft
Sannsynlighet 40% :
Midlertidig
fra 24. klokken 08 UTC til 24. klokken 14 UTC
Sikt: 3000 m
Brutte skyer i en høyde av 1000 ft
snø

TAF: EETU 240700Z 2408/2414 02005KT 9999 SCT020 PROB40 TEMPO 2408/2414 3000 SN BKN010

Værobservasjoner og værvarsel for over 4000 flyplasser (METAR- og TAF-rapporter).

Tilgjengelige stasjoner er representert av de røde og gule prikkene på kartet.

Hold musepekeren over prikken for å se navnet på stasjonen.

Klikk så for å se værobservasjoner og -varsler.

For å forandre kartet kan du klikke på den grønne knappen med svart kryss for å zoome inn, på den grønne knappen med strek for å zoome ut, eller på de grønne pilene for å se tilstøtende kart.


METAR-TAF: